createdAt,value
2019-01-10T00:01:21.890Z,101796.09
2019-01-10T00:03:51.620Z,101799.36
2019-01-10T00:06:21.233Z,101798.21
2019-01-10T00:08:50.988Z,101799.84
2019-01-10T00:11:20.833Z,101803.69
2019-01-10T00:13:50.609Z,101809.02
2019-01-10T00:16:20.279Z,101810.11
2019-01-10T00:18:49.885Z,101810.77
2019-01-10T00:21:19.467Z,101816.06
2019-01-10T00:23:49.066Z,101813.26
2019-01-10T00:26:18.749Z,101810.51
2019-01-10T00:28:48.370Z,101801.05
2019-01-10T00:31:17.957Z,101817.17
2019-01-10T00:33:47.575Z,101820.49
2019-01-10T00:36:17.282Z,101825.41
2019-01-10T00:38:46.945Z,101823.53
2019-01-10T00:41:16.626Z,101819.06
2019-01-10T00:43:46.210Z,101818.41
2019-01-10T00:46:15.807Z,101827.38
2019-01-10T00:48:45.427Z,101829.69
2019-01-10T00:51:15.007Z,101834.31
2019-01-10T00:53:44.602Z,101836.39
2019-01-10T00:56:14.161Z,101840.14
2019-01-10T00:58:43.778Z,101834.36
2019-01-10T01:01:13.467Z,101837.69
2019-01-10T01:03:43.037Z,101838.27
2019-01-10T01:06:12.619Z,101834.66
2019-01-10T01:08:42.177Z,101849.39
2019-01-10T01:11:11.769Z,101850.87
2019-01-10T01:13:41.427Z,101848.92
2019-01-10T01:16:11.305Z,101846.31
2019-01-10T01:18:40.916Z,101849.12
2019-01-10T01:21:10.575Z,101857.58
2019-01-10T01:23:40.153Z,101863.42
2019-01-10T01:26:09.759Z,101861.34
2019-01-10T01:28:39.414Z,101867.54
2019-01-10T01:31:09.101Z,101875.06
2019-01-10T01:33:38.936Z,101878.73
2019-01-10T01:36:08.807Z,101881.05
2019-01-10T01:38:38.495Z,101885.36
2019-01-10T01:41:08.221Z,101893.95
2019-01-10T01:43:37.833Z,101892.09
2019-01-10T01:46:07.849Z,101899.95
2019-01-10T01:48:37.565Z,101902.31
2019-01-10T01:51:07.201Z,101896.67
2019-01-10T01:53:36.771Z,101901.84
2019-01-10T01:56:06.607Z,101896.89
2019-01-10T01:58:36.365Z,101911.13
2019-01-10T02:01:06.109Z,101913.03
2019-01-10T02:03:35.784Z,101915.88
2019-01-10T02:06:05.665Z,101912.28
2019-01-10T02:08:35.225Z,101913.30
2019-01-10T02:11:05.403Z,101914.34
2019-01-10T02:13:35.069Z,101909.07
2019-01-10T02:16:04.859Z,101913.48
2019-01-10T02:18:34.445Z,101922.36
2019-01-10T02:21:04.139Z,101924.16
2019-01-10T02:23:33.856Z,101932.09
2019-01-10T02:26:03.591Z,101928.78
2019-01-10T02:28:33.150Z,101924.45
2019-01-10T02:31:02.885Z,101936.20
2019-01-10T02:33:32.612Z,101942.55
2019-01-10T02:36:02.314Z,101946.44
2019-01-10T02:38:31.983Z,101955.84
2019-01-10T02:41:02.841Z,101957.17
2019-01-10T02:43:32.645Z,101954.12
2019-01-10T02:46:02.414Z,101949.84
2019-01-10T02:48:32.010Z,101951.86
2019-01-10T02:51:01.586Z,101947.86
2019-01-10T02:53:31.168Z,101948.23
2019-01-10T02:56:00.707Z,101938.94
2019-01-10T02:58:30.341Z,101941.05
2019-01-10T03:00:59.979Z,101940.30
2019-01-10T03:03:29.603Z,101946.70
2019-01-10T03:05:59.156Z,101949.61
2019-01-10T03:08:28.811Z,101950.98
2019-01-10T03:10:58.511Z,101946.58
2019-01-10T03:13:36.516Z,101945.56
2019-01-10T03:15:59.469Z,101944.41
2019-01-10T03:18:29.163Z,101944.88
2019-01-10T03:20:58.724Z,101947.02
2019-01-10T03:23:28.465Z,101944.52
2019-01-10T03:25:58.066Z,101943.46
2019-01-10T03:28:27.805Z,101941.45
2019-01-10T03:30:57.363Z,101937.45
2019-01-10T03:33:26.977Z,101940.12
2019-01-10T03:35:56.577Z,101937.40
2019-01-10T03:38:26.131Z,101943.27
2019-01-10T03:40:55.770Z,101937.76
2019-01-10T03:43:25.377Z,101945.98
2019-01-10T03:45:55.054Z,101940.88
2019-01-10T03:48:24.687Z,101937.72
2019-01-10T03:50:54.232Z,101937.28
2019-01-10T03:53:23.881Z,101940.02
2019-01-10T03:55:53.452Z,101941.48
2019-01-10T03:58:23.009Z,101941.53
2019-01-10T04:00:52.610Z,101942.52
2019-01-10T04:03:22.152Z,101939.13
2019-01-10T04:05:52.013Z,101939.98
2019-01-10T04:08:22.196Z,101934.55
2019-01-10T04:10:51.822Z,101932.58
2019-01-10T04:13:21.478Z,101934.87
2019-01-10T04:15:51.094Z,101940.19
2019-01-10T04:18:20.679Z,101928.42
2019-01-10T04:20:50.360Z,101929.39
2019-01-10T04:23:19.961Z,101928.30
2019-01-10T04:25:49.742Z,101925.19
2019-01-10T04:28:19.310Z,101932.88
2019-01-10T04:30:48.893Z,101937.40
2019-01-10T04:33:18.436Z,101925.85
2019-01-10T04:35:48.014Z,101933.17
2019-01-10T04:38:17.597Z,101934.34
2019-01-10T04:40:47.405Z,101934.09
2019-01-10T04:43:16.980Z,101932.55
2019-01-10T04:45:46.544Z,101934.52
2019-01-10T04:48:16.124Z,101931.61
2019-01-10T04:50:45.676Z,101931.97
2019-01-10T04:53:15.301Z,101929.80
2019-01-10T04:55:44.866Z,101931.48
2019-01-10T04:58:14.441Z,101931.31
2019-01-10T05:00:44.036Z,101921.68
2019-01-10T05:03:13.601Z,101934.01
2019-01-10T05:05:43.189Z,101931.15
2019-01-10T05:08:12.784Z,101927.16
2019-01-10T05:10:42.356Z,101927.16
2019-01-10T05:13:11.947Z,101926.64
2019-01-10T05:15:41.568Z,101929.42
2019-01-10T05:18:11.421Z,101922.52
2019-01-10T05:20:40.991Z,101924.48
2019-01-10T05:23:10.588Z,101928.34
2019-01-10T05:25:40.158Z,101931.31
2019-01-10T05:28:09.785Z,101931.13
2019-01-10T05:30:39.386Z,101939.61
2019-01-10T05:33:09.052Z,101939.91
2019-01-10T05:35:38.616Z,101940.08
2019-01-10T05:38:08.217Z,101941.89
2019-01-10T05:40:37.795Z,101939.86
2019-01-10T05:43:07.550Z,101940.45
2019-01-10T05:45:37.152Z,101946.81
2019-01-10T05:48:06.738Z,101951.30
2019-01-10T05:50:36.337Z,101953.31
2019-01-10T05:53:05.967Z,101953.69
2019-01-10T05:55:38.610Z,101953.00
2019-01-10T05:58:08.185Z,101957.72
2019-01-10T06:00:37.759Z,101958.52
2019-01-10T06:03:07.384Z,101954.61
2019-01-10T06:05:36.997Z,101961.86
2019-01-10T06:08:06.597Z,101968.54
2019-01-10T06:10:36.319Z,101966.80
2019-01-10T06:13:05.976Z,101967.69
2019-01-10T06:15:35.567Z,101972.83
2019-01-10T06:18:05.226Z,101984.77
2019-01-10T06:20:34.815Z,101978.46
2019-01-10T06:23:04.414Z,101987.39
2019-01-10T06:25:34.031Z,101991.27
2019-01-10T06:28:03.686Z,102002.19
2019-01-10T06:30:33.316Z,101995.73
2019-01-10T06:33:02.908Z,101994.23
2019-01-10T06:35:32.515Z,102008.39
2019-01-10T06:38:02.077Z,102007.16
2019-01-10T06:40:32.246Z,102007.80
2019-01-10T06:43:01.896Z,102005.83
2019-01-10T06:45:31.472Z,102007.77
2019-01-10T06:48:01.155Z,102008.81
2019-01-10T06:50:30.754Z,102013.66
2019-01-10T06:53:00.433Z,102018.22
2019-01-10T06:55:30.054Z,102024.61
2019-01-10T06:57:59.657Z,102026.27
2019-01-10T07:00:29.282Z,102030.82
2019-01-10T07:02:58.872Z,102028.89
2019-01-10T07:05:28.550Z,102034.50
2019-01-10T07:07:58.138Z,102037.45
2019-01-10T07:10:29.659Z,102038.00
2019-01-10T07:12:59.253Z,102044.14
2019-01-10T07:15:28.824Z,102044.14
2019-01-10T07:17:58.543Z,102046.67
2019-01-10T07:20:28.283Z,102046.52
2019-01-10T07:22:58.069Z,102046.86
2019-01-10T07:25:27.651Z,102049.93
2019-01-10T07:27:57.364Z,102049.27
2019-01-10T07:30:35.987Z,102043.20
2019-01-10T07:32:59.150Z,102049.99
2019-01-10T07:35:28.735Z,102049.66
2019-01-10T07:37:58.469Z,102049.17
2019-01-10T07:40:28.440Z,102048.72
2019-01-10T07:42:58.139Z,102049.48
2019-01-10T07:45:28.580Z,102051.44
2019-01-10T07:47:58.180Z,102051.88
2019-01-10T07:50:35.357Z,102056.47
2019-01-10T07:53:07.221Z,102061.22
2019-01-10T07:55:37.391Z,102062.28
2019-01-10T07:58:07.107Z,102063.28
2019-01-10T08:00:36.767Z,102059.52
2019-01-10T08:03:08.674Z,102058.53
2019-01-10T08:05:37.933Z,102066.95
2019-01-10T08:08:08.694Z,102070.87
2019-01-10T08:10:38.757Z,102078.09
2019-01-10T08:13:08.515Z,102065.89
2019-01-10T08:15:38.087Z,102065.90
2019-01-10T08:18:07.780Z,102068.80
2019-01-10T08:20:37.363Z,102071.53
2019-01-10T08:23:07.180Z,102076.72
2019-01-10T08:25:36.707Z,102072.82
2019-01-10T08:28:06.428Z,102074.15
2019-01-10T08:30:36.846Z,102073.64
2019-01-10T08:33:06.493Z,102072.52
2019-01-10T08:35:36.332Z,102075.33
2019-01-10T08:38:06.075Z,102076.09
2019-01-10T08:40:35.655Z,102079.41
2019-01-10T08:43:05.444Z,102082.25
2019-01-10T08:45:35.028Z,102082.92
2019-01-10T08:48:05.052Z,102084.86
2019-01-10T08:50:34.744Z,102085.45
2019-01-10T08:53:04.483Z,102083.72
2019-01-10T08:55:34.100Z,102086.80
2019-01-10T08:58:03.661Z,102077.79
2019-01-10T09:00:33.291Z,102088.99
2019-01-10T09:03:02.891Z,102088.70
2019-01-10T09:05:32.597Z,102094.66
2019-01-10T09:08:02.193Z,102095.36
2019-01-10T09:10:33.535Z,102101.26
2019-01-10T09:13:03.249Z,102103.54
2019-01-10T09:15:34.695Z,102101.09
2019-01-10T09:18:05.165Z,102099.19
2019-01-10T09:20:34.818Z,102104.90
2019-01-10T09:23:04.483Z,102108.66
2019-01-10T09:25:34.229Z,102108.94
2019-01-10T09:28:04.102Z,102114.10
2019-01-10T09:30:33.682Z,102110.30
2019-01-10T09:33:03.356Z,102112.80
2019-01-10T09:35:32.954Z,102113.23
2019-01-10T09:38:02.602Z,102120.58
2019-01-10T09:40:32.261Z,102116.84
2019-01-10T09:43:01.848Z,102124.38
2019-01-10T09:45:31.511Z,102123.07
2019-01-10T09:48:01.157Z,102117.78
2019-01-10T09:50:30.823Z,102121.36
2019-01-10T09:53:00.452Z,102121.85
2019-01-10T09:55:30.056Z,102122.64
2019-01-10T09:58:05.313Z,102114.98
2019-01-10T10:00:35.156Z,102120.58
2019-01-10T10:03:05.001Z,102121.06
2019-01-10T10:05:34.663Z,102125.92
2019-01-10T10:08:04.445Z,102130.00
2019-01-10T10:10:34.244Z,102135.55
2019-01-10T10:13:04.038Z,102135.56
2019-01-10T10:15:33.779Z,102139.37
2019-01-10T10:18:03.395Z,102138.71
2019-01-10T10:20:33.112Z,102138.67
2019-01-10T10:23:13.686Z,102131.42
2019-01-10T10:25:43.234Z,102132.68
2019-01-10T10:28:12.827Z,102135.92
2019-01-10T10:30:42.455Z,102134.52
2019-01-10T10:33:12.027Z,102138.25
2019-01-10T10:35:41.795Z,102131.98
2019-01-10T10:38:11.452Z,102132.67
2019-01-10T10:40:41.042Z,102130.78
2019-01-10T10:43:10.634Z,102132.03
2019-01-10T10:45:40.210Z,102126.65
2019-01-10T10:48:09.890Z,102133.38
2019-01-10T10:50:39.518Z,102130.69
2019-01-10T10:53:09.123Z,102130.22
2019-01-10T10:55:38.740Z,102128.92
2019-01-10T10:58:08.342Z,102121.93
2019-01-10T11:00:38.273Z,102118.36
2019-01-10T11:03:08.083Z,102113.32
2019-01-10T11:05:47.998Z,102113.56
2019-01-10T11:08:17.589Z,102111.66
2019-01-10T11:10:47.230Z,102109.75
2019-01-10T11:13:16.930Z,102113.75
2019-01-10T11:15:46.635Z,102114.71
2019-01-10T11:18:16.319Z,102112.98
2019-01-10T11:20:45.915Z,102108.48
2019-01-10T11:23:15.506Z,102107.48
2019-01-10T11:25:45.157Z,102104.70
2019-01-10T11:28:15.221Z,102112.70
2019-01-10T11:30:49.055Z,102110.89
2019-01-10T11:33:31.128Z,102109.01
2019-01-10T11:35:59.888Z,102109.79
2019-01-10T11:38:29.502Z,102101.86
2019-01-10T11:40:59.145Z,102103.20
2019-01-10T11:43:28.829Z,102108.17
2019-01-10T11:45:58.388Z,102103.72
2019-01-10T11:48:28.048Z,102104.75
2019-01-10T11:50:57.709Z,102097.09
2019-01-10T11:53:35.244Z,102096.78
2019-01-10T11:55:58.616Z,102096.41
2019-01-10T11:58:28.202Z,102087.70
2019-01-10T12:00:57.817Z,102086.95
2019-01-10T12:03:27.417Z,102087.47
2019-01-10T12:05:57.048Z,102082.98
2019-01-10T12:08:26.747Z,102094.87
2019-01-10T12:10:56.317Z,102082.62
2019-01-10T12:13:25.897Z,102083.77
2019-01-10T12:15:55.491Z,102082.16
2019-01-10T12:18:25.100Z,102085.09
2019-01-10T12:20:54.668Z,102079.30
2019-01-10T12:23:24.329Z,102079.56
2019-01-10T12:25:54.058Z,102074.34
2019-01-10T12:28:23.859Z,102068.36
2019-01-10T12:30:53.447Z,102073.19
2019-01-10T12:33:23.297Z,102071.02
2019-01-10T12:35:53.055Z,102068.88
2019-01-10T12:38:22.713Z,102068.52
2019-01-10T12:40:52.298Z,102064.36
2019-01-10T12:43:21.903Z,102062.05
2019-01-10T12:45:51.556Z,102056.72
2019-01-10T12:48:21.157Z,102062.87
2019-01-10T12:50:50.919Z,102060.04
2019-01-10T12:53:20.583Z,102066.68
2019-01-10T12:55:50.336Z,102062.86
2019-01-10T12:58:19.928Z,102055.72
2019-01-10T13:00:49.612Z,102053.09
2019-01-10T13:03:19.318Z,102052.58
2019-01-10T13:05:48.894Z,102045.45
2019-01-10T13:08:18.489Z,102043.77
2019-01-10T13:10:48.050Z,102045.28
2019-01-10T13:13:17.750Z,102039.30
2019-01-10T13:15:47.384Z,102045.26
2019-01-10T13:18:16.949Z,102039.61
2019-01-10T13:20:46.638Z,102039.28
2019-01-10T13:23:16.307Z,102043.45
2019-01-10T13:25:45.995Z,102042.77
2019-01-10T13:28:15.729Z,102045.42
2019-01-10T13:30:45.360Z,102043.09
2019-01-10T13:33:14.992Z,102045.27
2019-01-10T13:35:45.954Z,102041.61
2019-01-10T13:38:15.709Z,102036.11
2019-01-10T13:40:45.291Z,102038.12
2019-01-10T13:43:15.025Z,102037.94
2019-01-10T13:45:46.338Z,102040.27
2019-01-10T13:48:16.181Z,102047.41
2019-01-10T13:50:45.767Z,102040.78
2019-01-10T13:53:15.443Z,102047.41
2019-01-10T13:55:45.073Z,102042.11
2019-01-10T13:58:14.691Z,102038.12
2019-01-10T14:00:44.420Z,102031.97
2019-01-10T14:03:14.081Z,102033.80
2019-01-10T14:05:43.686Z,102039.43
2019-01-10T14:08:13.367Z,102033.13
2019-01-10T14:10:42.987Z,102039.43
2019-01-10T14:13:12.680Z,102036.28
2019-01-10T14:15:42.373Z,102038.75
2019-01-10T14:18:12.028Z,102039.27
2019-01-10T14:20:41.601Z,102038.77
2019-01-10T14:23:11.297Z,102033.62
2019-01-10T14:25:40.889Z,102039.59
2019-01-10T14:28:10.547Z,102044.91
2019-01-10T14:30:41.206Z,102046.92
2019-01-10T14:33:12.577Z,102037.94
2019-01-10T14:35:42.421Z,102042.25
2019-01-10T14:38:12.617Z,102045.40
2019-01-10T14:40:42.274Z,102037.77
2019-01-10T14:43:12.032Z,102043.26
2019-01-10T14:45:42.945Z,102036.80
2019-01-10T14:48:12.633Z,102031.77
2019-01-10T14:50:42.219Z,102033.95
2019-01-10T14:53:11.869Z,102038.78
2019-01-10T14:55:41.416Z,102044.42
2019-01-10T14:58:11.097Z,102042.09
2019-01-10T15:00:40.687Z,102044.10
2019-01-10T15:03:10.288Z,102045.59
2019-01-10T15:05:40.027Z,102038.42
2019-01-10T15:08:09.778Z,102035.11
2019-01-10T15:10:39.602Z,102034.27
2019-01-10T15:13:09.391Z,102037.77
2019-01-10T15:15:39.072Z,102038.94
2019-01-10T15:18:08.770Z,102044.75
2019-01-10T15:20:38.476Z,102039.59
2019-01-10T15:23:08.223Z,102043.91
2019-01-10T15:25:37.882Z,102047.90
2019-01-10T15:28:07.606Z,102045.76
2019-01-10T15:30:37.229Z,102048.58
2019-01-10T15:33:07.177Z,102051.89
2019-01-10T15:35:38.943Z,102052.89
2019-01-10T15:38:13.801Z,102051.58
2019-01-10T15:40:39.945Z,102050.43
2019-01-10T15:43:09.731Z,102046.78
2019-01-10T15:45:39.407Z,102044.26
2019-01-10T15:48:09.057Z,102040.76
2019-01-10T15:50:38.702Z,102036.60
2019-01-10T15:53:08.425Z,102039.61
2019-01-10T15:55:38.015Z,102032.45
2019-01-10T15:58:07.586Z,102028.30
2019-01-10T16:00:37.248Z,102028.45
2019-01-10T16:03:06.942Z,102025.31
2019-01-10T16:05:36.818Z,102018.36
2019-01-10T16:08:06.635Z,102017.36
2019-01-10T16:10:36.229Z,102025.31
2019-01-10T16:13:05.858Z,102026.31
2019-01-10T16:15:35.577Z,102027.31
2019-01-10T16:18:05.360Z,102029.00
2019-01-10T16:20:35.020Z,102025.99
2019-01-10T16:23:04.847Z,102022.66
2019-01-10T16:25:34.502Z,102023.01
2019-01-10T16:28:04.166Z,102020.17
2019-01-10T16:30:33.915Z,102028.80
2019-01-10T16:33:03.579Z,102031.31
2019-01-10T16:35:33.250Z,102036.13
2019-01-10T16:38:02.834Z,102029.16
2019-01-10T16:40:32.426Z,102027.47
2019-01-10T16:43:01.998Z,102025.30
2019-01-10T16:45:32.784Z,102021.84
2019-01-10T16:48:02.442Z,102013.02
2019-01-10T16:50:32.015Z,102022.16
2019-01-10T16:53:01.780Z,102015.53
2019-01-10T16:55:31.598Z,102017.33
2019-01-10T16:58:01.217Z,102013.19
2019-01-10T17:00:34.979Z,102014.52
2019-01-10T17:03:04.723Z,102010.85
2019-01-10T17:05:34.559Z,102012.19
2019-01-10T17:08:05.392Z,102009.38
2019-01-10T17:10:35.157Z,102008.88
2019-01-10T17:13:05.143Z,102004.38
2019-01-10T17:15:35.080Z,102005.39
2019-01-10T17:18:04.833Z,102000.88
2019-01-10T17:20:34.464Z,101998.55
2019-01-10T17:23:04.456Z,102003.22
2019-01-10T17:25:34.223Z,102001.72
2019-01-10T17:28:03.950Z,102000.38
2019-01-10T17:30:33.690Z,101996.73
2019-01-10T17:33:04.292Z,101994.75
2019-01-10T17:35:34.315Z,101991.08
2019-01-10T17:38:04.937Z,101995.92
2019-01-10T17:40:34.680Z,101988.44
2019-01-10T17:43:05.646Z,101988.09
2019-01-10T17:45:36.980Z,101993.59
2019-01-10T17:48:08.910Z,102002.04
2019-01-10T17:50:38.690Z,102007.05
2019-01-10T17:53:08.312Z,102004.55
2019-01-10T17:55:37.967Z,102002.89
2019-01-10T17:58:07.837Z,101994.89
2019-01-10T18:00:37.454Z,101978.64
2019-01-10T18:03:07.020Z,101984.77
2019-01-10T18:05:36.741Z,101982.63
2019-01-10T18:08:06.556Z,101995.39
2019-01-10T18:10:36.285Z,101997.06
2019-01-10T18:13:05.970Z,101986.95
2019-01-10T18:15:35.661Z,101985.95
2019-01-10T18:18:05.389Z,101981.96
2019-01-10T18:20:40.090Z,101977.96
2019-01-10T18:23:10.061Z,101984.54
2019-01-10T18:25:39.741Z,101985.59
2019-01-10T18:28:09.477Z,101980.95
2019-01-10T18:30:43.368Z,101983.78
2019-01-10T18:33:10.475Z,101985.73
2019-01-10T18:35:40.122Z,101984.59
2019-01-10T18:38:09.708Z,101982.63
2019-01-10T18:40:39.517Z,101980.47
2019-01-10T18:43:09.385Z,101992.73
2019-01-10T18:45:39.121Z,101987.26
2019-01-10T18:48:08.744Z,101986.91
2019-01-10T18:50:38.449Z,101985.12
2019-01-10T18:53:08.174Z,101988.25
2019-01-10T18:55:37.845Z,101985.61
2019-01-10T18:58:07.486Z,101982.60
2019-01-10T19:00:37.138Z,101988.42
2019-01-10T19:03:06.996Z,101984.60
2019-01-10T19:05:36.635Z,101987.25
2019-01-10T19:08:06.381Z,101989.59
2019-01-10T19:10:36.356Z,101995.56
2019-01-10T19:13:06.113Z,101993.55
2019-01-10T19:15:35.829Z,101991.20
2019-01-10T19:18:05.624Z,102003.31
2019-01-10T19:20:35.236Z,102007.52
2019-01-10T19:23:05.006Z,102009.83
2019-01-10T19:25:34.591Z,102017.47
2019-01-10T19:28:04.445Z,102014.66
2019-01-10T19:30:38.756Z,102016.27
2019-01-10T19:33:08.643Z,102015.15
2019-01-10T19:35:38.344Z,102019.61
2019-01-10T19:38:08.155Z,102017.30
2019-01-10T19:40:37.794Z,102020.47
2019-01-10T19:43:07.477Z,102023.13
2019-01-10T19:45:37.165Z,102029.91
2019-01-10T19:48:09.739Z,102026.77
2019-01-10T19:50:38.324Z,102027.92
2019-01-10T19:53:08.047Z,102028.25
2019-01-10T19:55:37.836Z,102029.42
2019-01-10T19:58:07.920Z,102030.25
2019-01-10T20:00:42.446Z,102028.62
2019-01-10T20:03:12.257Z,102028.27
2019-01-10T20:05:41.921Z,102029.08
2019-01-10T20:08:11.599Z,102031.72
2019-01-10T20:10:41.347Z,102018.79
2019-01-10T20:13:10.995Z,102028.73
2019-01-10T20:15:40.602Z,102027.08
2019-01-10T20:18:15.894Z,102026.23
2019-01-10T20:20:42.951Z,102028.91
2019-01-10T20:23:37.908Z,102019.45
2019-01-10T20:26:07.664Z,102011.80
2019-01-10T20:28:37.475Z,102015.80
2019-01-10T20:31:07.286Z,102006.98
2019-01-10T20:33:37.055Z,102012.97
2019-01-10T20:36:06.787Z,102003.34
2019-01-10T20:38:36.500Z,102000.50
2019-01-10T20:41:06.122Z,101998.66
2019-01-10T20:43:36.224Z,101998.19
2019-01-10T20:46:05.916Z,101999.66
2019-01-10T20:48:35.605Z,101998.83
2019-01-10T20:51:05.318Z,102000.63
2019-01-10T20:53:34.913Z,102005.30
2019-01-10T20:56:04.599Z,102004.94
2019-01-10T20:58:34.247Z,102000.45
2019-01-10T21:01:03.988Z,102001.62
2019-01-10T21:03:33.613Z,102001.23
2019-01-10T21:06:03.431Z,102001.25
2019-01-10T21:08:33.156Z,101995.39
2019-01-10T21:11:02.830Z,101989.45
2019-01-10T21:13:32.513Z,101991.14
2019-01-10T21:16:02.116Z,101991.58
2019-01-10T21:18:31.745Z,101987.79
2019-01-10T21:21:01.395Z,101982.31
2019-01-10T21:23:31.047Z,101976.52
2019-01-10T21:26:00.640Z,101979.48
2019-01-10T21:28:30.356Z,101980.17
2019-01-10T21:31:00.436Z,101983.47
2019-01-10T21:33:30.118Z,101989.60
2019-01-10T21:35:59.776Z,101975.21
2019-01-10T21:38:29.563Z,101978.00
2019-01-10T21:40:59.307Z,101979.87
2019-01-10T21:43:28.908Z,101971.16
2019-01-10T21:45:58.694Z,101967.59
2019-01-10T21:48:28.321Z,101973.76
2019-01-10T21:50:57.930Z,101966.27
2019-01-10T21:53:27.526Z,101965.36
2019-01-10T21:55:57.235Z,101958.11
2019-01-10T21:58:26.842Z,101955.13
2019-01-10T22:00:56.444Z,101961.59
2019-01-10T22:03:26.024Z,101961.95
2019-01-10T22:05:55.631Z,101961.03
2019-01-10T22:08:25.350Z,101950.95
2019-01-10T22:10:55.030Z,101945.42
2019-01-10T22:13:24.632Z,101941.78
2019-01-10T22:15:54.204Z,101941.28
2019-01-10T22:18:23.814Z,101935.02
2019-01-10T22:20:53.469Z,101929.05
2019-01-10T22:23:23.138Z,101923.66
2019-01-10T22:25:52.766Z,101928.06
2019-01-10T22:28:22.394Z,101918.19
2019-01-10T22:30:51.990Z,101911.20
2019-01-10T22:33:21.580Z,101912.72
2019-01-10T22:35:51.189Z,101912.09
2019-01-10T22:38:20.852Z,101905.33
2019-01-10T22:40:50.436Z,101903.28
2019-01-10T22:43:20.032Z,101902.13
2019-01-10T22:45:49.712Z,101899.81
2019-01-10T22:48:19.385Z,101891.01
2019-01-10T22:50:49.048Z,101893.82
2019-01-10T22:53:18.644Z,101894.98
2019-01-10T22:55:48.225Z,101887.47
2019-01-10T22:58:17.846Z,101887.30
2019-01-10T23:01:29.224Z,101884.66
2019-01-10T23:03:59.396Z,101883.88
2019-01-10T23:06:29.056Z,101877.92
2019-01-10T23:08:58.795Z,101875.24
2019-01-10T23:11:28.532Z,101874.95
2019-01-10T23:14:02.481Z,101870.30
2019-01-10T23:16:34.668Z,101862.63
2019-01-10T23:19:05.111Z,101861.98
2019-01-10T23:21:39.462Z,101863.80
2019-01-10T23:24:19.630Z,101860.30
2019-01-10T23:26:57.667Z,101855.50
2019-01-10T23:29:41.024Z,101856.00
2019-01-10T23:32:15.079Z,101851.38
2019-01-10T23:34:49.258Z,101848.18
2019-01-10T23:37:26.247Z,101840.76
2019-01-10T23:39:56.591Z,101837.45
2019-01-10T23:42:26.407Z,101838.58
2019-01-10T23:44:56.074Z,101841.23
2019-01-10T23:47:25.730Z,101829.80
2019-01-10T23:49:55.330Z,101827.78
2019-01-10T23:52:24.906Z,101827.50
2019-01-10T23:54:54.637Z,101818.02
2019-01-10T23:57:24.184Z,101815.55
2019-01-10T23:59:53.767Z,101815.55
